Chuhuyiv, Ukraine
Current Conditions -  °F | °C
As of 11:30 AM on Saturday 25 Oct 2014 (Local Time) from UKHH Reporting Station
Clear Clear  
Wind Chill: 20°   Ceiling: Unl
Heat Index: 28°   Visibility: 6mi
Dew Point: 10°   Wind: 9mph
Humidity: 47%   Direction: 50°NE
Pressure: 30.59"   Gusts: NA
Location:  49.84°N, 36.69°E
Report Text: UKHH 250830Z 05004MPS CAVOK M02/M12 Q1036 070///65 NOSIG
Loading
Personal Weather Stations






























Interactive Weather Map
Tropical Storm Tracking
New forecast layout! Learn more

10-Day Weather Forecast

Advertisements
Track Severe Weather on mobile